sensor_id;sensor_type;location;lat;lon;timestamp;P1;durP1;ratioP1;P2;durP2;ratioP2
20657;SDS011;10488;50.846;4.078;2023-02-28T00:00:23;13.60;;;7.60;;
20657;SDS011;10488;50.846;4.078;2023-02-28T00:02:49;11.87;;;8.13;;
20657;SDS011;10488;50.846;4.078;2023-02-28T00:05:17;13.40;;;7.43;;
20657;SDS011;10488;50.846;4.078;2023-02-28T00:07:44;13.90;;;7.67;;
20657;SDS011;10488;50.846;4.078;2023-02-28T00:10:13;10.37;;;8.07;;
20657;SDS011;10488;50.846;4.078;2023-02-28T00:12:40;12.37;;;7.27;;
20657;SDS011;10488;50.846;4.078;2023-02-28T00:15:06;9.63;;;6.40;;
20657;SDS011;10488;50.846;4.078;2023-02-28T00:17:35;14.00;;;7.87;;
20657;SDS011;10488;50.846;4.078;2023-02-28T00:20:02;11.33;;;6.90;;
20657;SDS011;10488;50.846;4.078;2023-02-28T00:22:32;11.00;;;7.53;;
20657;SDS011;10488;50.846;4.078;2023-02-28T00:24:57;9.93;;;7.93;;
20657;SDS011;10488;50.846;4.078;2023-02-28T00:27:24;10.97;;;7.33;;
20657;SDS011;10488;50.846;4.078;2023-02-28T00:29:51;13.83;;;7.50;;
20657;SDS011;10488;50.846;4.078;2023-02-28T00:32:17;11.27;;;7.13;;
20657;SDS011;10488;50.846;4.078;2023-02-28T00:34:43;12.03;;;7.40;;
20657;SDS011;10488;50.846;4.078;2023-02-28T00:37:10;10.97;;;7.10;;
20657;SDS011;10488;50.846;4.078;2023-02-28T00:39:38;10.87;;;7.80;;
20657;SDS011;10488;50.846;4.078;2023-02-28T00:42:06;11.27;;;7.50;;
20657;SDS011;10488;50.846;4.078;2023-02-28T00:44:32;9.40;;;7.00;;
20657;SDS011;10488;50.846;4.078;2023-02-28T00:46:58;10.30;;;7.23;;
20657;SDS011;10488;50.846;4.078;2023-02-28T00:49:25;13.30;;;7.80;;
20657;SDS011;10488;50.846;4.078;2023-02-28T00:51:51;11.47;;;8.17;;
20657;SDS011;10488;50.846;4.078;2023-02-28T00:54:18;13.13;;;7.57;;
20657;SDS011;10488;50.846;4.078;2023-02-28T00:56:44;11.07;;;7.93;;
20657;SDS011;10488;50.846;4.078;2023-02-28T00:59:13;10.60;;;7.97;;
20657;SDS011;10488;50.846;4.078;2023-02-28T01:01:46;14.83;;;8.07;;
20657;SDS011;10488;50.846;4.078;2023-02-28T01:04:13;13.03;;;8.40;;
20657;SDS011;10488;50.846;4.078;2023-02-28T01:06:40;11.47;;;8.07;;
20657;SDS011;10488;50.846;4.078;2023-02-28T01:09:07;13.87;;;8.17;;
20657;SDS011;10488;50.846;4.078;2023-02-28T01:11:34;13.50;;;8.60;;
20657;SDS011;10488;50.846;4.078;2023-02-28T01:14:00;17.43;;;8.77;;
20657;SDS011;10488;50.846;4.078;2023-02-28T01:16:27;11.83;;;7.80;;
20657;SDS011;10488;50.846;4.078;2023-02-28T01:18:54;11.97;;;7.53;;
20657;SDS011;10488;50.846;4.078;2023-02-28T01:21:20;11.50;;;7.67;;
20657;SDS011;10488;50.846;4.078;2023-02-28T01:23:47;10.43;;;7.93;;
20657;SDS011;10488;50.846;4.078;2023-02-28T01:26:14;11.83;;;8.00;;
20657;SDS011;10488;50.846;4.078;2023-02-28T01:28:43;12.57;;;8.30;;
20657;SDS011;10488;50.846;4.078;2023-02-28T01:31:10;16.00;;;8.37;;
20657;SDS011;10488;50.846;4.078;2023-02-28T01:33:36;16.97;;;8.87;;
20657;SDS011;10488;50.846;4.078;2023-02-28T01:36:03;17.20;;;8.97;;
20657;SDS011;10488;50.846;4.078;2023-02-28T01:38:35;17.37;;;8.40;;
20657;SDS011;10488;50.846;4.078;2023-02-28T01:41:01;12.20;;;7.57;;
20657;SDS011;10488;50.846;4.078;2023-02-28T01:43:32;12.67;;;7.97;;
20657;SDS011;10488;50.846;4.078;2023-02-28T01:46:10;11.43;;;7.60;;
20657;SDS011;10488;50.846;4.078;2023-02-28T01:48:42;14.70;;;8.70;;
20657;SDS011;10488;50.846;4.078;2023-02-28T01:51:29;17.00;;;9.00;;
20657;SDS011;10488;50.846;4.078;2023-02-28T01:54:03;14.97;;;8.63;;
20657;SDS011;10488;50.846;4.078;2023-02-28T01:56:39;12.00;;;8.87;;
20657;SDS011;10488;50.846;4.078;2023-02-28T01:59:24;13.70;;;7.77;;
20657;SDS011;10488;50.846;4.078;2023-02-28T02:02:00;14.63;;;8.50;;
20657;SDS011;10488;50.846;4.078;2023-02-28T02:04:33;14.87;;;9.27;;
20657;SDS011;10488;50.846;4.078;2023-02-28T02:07:04;13.97;;;8.53;;
20657;SDS011;10488;50.846;4.078;2023-02-28T02:09:30;13.63;;;9.13;;
20657;SDS011;10488;50.846;4.078;2023-02-28T02:11:57;12.53;;;8.50;;
20657;SDS011;10488;50.846;4.078;2023-02-28T02:22:41;13.67;;;9.00;;
20657;SDS011;10488;50.846;4.078;2023-02-28T02:36:19;18.90;;;9.87;;
20657;SDS011;10488;50.846;4.078;2023-02-28T02:38:54;13.13;;;9.17;;
20657;SDS011;10488;50.846;4.078;2023-02-28T02:41:35;21.20;;;9.73;;
20657;SDS011;10488;50.846;4.078;2023-02-28T02:44:25;15.50;;;9.73;;
20657;SDS011;10488;50.846;4.078;2023-02-28T02:46:57;14.87;;;9.50;;
20657;SDS011;10488;50.846;4.078;2023-02-28T02:49:27;17.43;;;10.13;;
20657;SDS011;10488;50.846;4.078;2023-02-28T02:51:57;17.27;;;10.10;;
20657;SDS011;10488;50.846;4.078;2023-02-28T02:54:31;14.47;;;9.83;;
20657;SDS011;10488;50.846;4.078;2023-02-28T02:57:01;18.23;;;10.03;;
20657;SDS011;10488;50.846;4.078;2023-02-28T02:59:31;18.77;;;10.20;;
20657;SDS011;10488;50.846;4.078;2023-02-28T03:02:00;19.07;;;9.50;;
20657;SDS011;10488;50.846;4.078;2023-02-28T03:04:32;18.13;;;9.77;;
20657;SDS011;10488;50.846;4.078;2023-02-28T03:07:04;13.73;;;9.47;;
20657;SDS011;10488;50.846;4.078;2023-02-28T03:09:32;15.90;;;10.57;;
20657;SDS011;10488;50.846;4.078;2023-02-28T03:12:00;20.30;;;10.20;;
20657;SDS011;10488;50.846;4.078;2023-02-28T03:28:08;16.20;;;10.67;;
20657;SDS011;10488;50.846;4.078;2023-02-28T03:30:43;18.17;;;10.83;;
20657;SDS011;10488;50.846;4.078;2023-02-28T03:33:20;17.90;;;10.47;;
20657;SDS011;10488;50.846;4.078;2023-02-28T03:35:59;15.87;;;10.97;;
20657;SDS011;10488;50.846;4.078;2023-02-28T03:38:31;18.03;;;11.13;;
20657;SDS011;10488;50.846;4.078;2023-02-28T03:41:51;18.07;;;11.30;;
20657;SDS011;10488;50.846;4.078;2023-02-28T03:44:08;17.77;;;10.33;;
20657;SDS011;10488;50.846;4.078;2023-02-28T03:46:40;19.40;;;10.67;;
20657;SDS011;10488;50.846;4.078;2023-02-28T03:49:17;18.93;;;11.50;;
20657;SDS011;10488;50.846;4.078;2023-02-28T03:51:48;20.27;;;11.77;;
20657;SDS011;10488;50.846;4.078;2023-02-28T03:54:18;18.60;;;11.83;;
20657;SDS011;10488;50.846;4.078;2023-02-28T03:59:47;24.83;;;11.63;;
20657;SDS011;10488;50.846;4.078;2023-02-28T04:02:38;18.23;;;11.73;;
20657;SDS011;10488;50.846;4.078;2023-02-28T04:05:05;23.03;;;11.43;;
20657;SDS011;10488;50.846;4.078;2023-02-28T04:07:32;17.37;;;11.93;;
20657;SDS011;10488;50.846;4.078;2023-02-28T04:10:00;18.00;;;11.40;;
20657;SDS011;10488;50.846;4.078;2023-02-28T04:12:27;21.97;;;13.30;;
20657;SDS011;10488;50.846;4.078;2023-02-28T04:14:54;19.00;;;11.57;;
20657;SDS011;10488;50.846;4.078;2023-02-28T04:17:20;22.40;;;12.93;;
20657;SDS011;10488;50.846;4.078;2023-02-28T04:19:46;22.00;;;12.83;;
20657;SDS011;10488;50.846;4.078;2023-02-28T04:22:13;26.20;;;12.90;;
20657;SDS011;10488;50.846;4.078;2023-02-28T04:24:40;20.67;;;12.30;;
20657;SDS011;10488;50.846;4.078;2023-02-28T04:27:08;22.17;;;12.80;;
20657;SDS011;10488;50.846;4.078;2023-02-28T04:29:34;24.43;;;12.60;;
20657;SDS011;10488;50.846;4.078;2023-02-28T04:32:00;23.90;;;12.03;;
20657;SDS011;10488;50.846;4.078;2023-02-28T04:34:28;20.43;;;12.50;;
20657;SDS011;10488;50.846;4.078;2023-02-28T04:36:56;22.30;;;12.20;;
20657;SDS011;10488;50.846;4.078;2023-02-28T04:39:23;22.07;;;13.27;;
20657;SDS011;10488;50.846;4.078;2023-02-28T04:41:50;24.90;;;14.43;;
20657;SDS011;10488;50.846;4.078;2023-02-28T04:44:17;22.07;;;13.00;;
20657;SDS011;10488;50.846;4.078;2023-02-28T04:46:43;26.00;;;13.37;;
20657;SDS011;10488;50.846;4.078;2023-02-28T04:49:12;22.57;;;13.00;;
20657;SDS011;10488;50.846;4.078;2023-02-28T04:51:38;18.00;;;12.70;;
20657;SDS011;10488;50.846;4.078;2023-02-28T04:54:05;19.47;;;13.00;;
20657;SDS011;10488;50.846;4.078;2023-02-28T04:56:31;20.10;;;12.67;;
20657;SDS011;10488;50.846;4.078;2023-02-28T04:58:57;24.37;;;13.47;;
20657;SDS011;10488;50.846;4.078;2023-02-28T05:01:24;22.57;;;12.90;;
20657;SDS011;10488;50.846;4.078;2023-02-28T05:03:55;20.17;;;12.87;;
20657;SDS011;10488;50.846;4.078;2023-02-28T05:06:24;21.33;;;12.60;;
20657;SDS011;10488;50.846;4.078;2023-02-28T05:08:53;27.53;;;14.27;;
20657;SDS011;10488;50.846;4.078;2023-02-28T05:11:20;25.30;;;14.10;;
20657;SDS011;10488;50.846;4.078;2023-02-28T05:13:48;21.93;;;13.43;;
20657;SDS011;10488;50.846;4.078;2023-02-28T05:16:15;24.63;;;13.70;;
20657;SDS011;10488;50.846;4.078;2023-02-28T05:18:42;22.17;;;13.67;;
20657;SDS011;10488;50.846;4.078;2023-02-28T05:22:09;21.37;;;13.57;;
20657;SDS011;10488;50.846;4.078;2023-02-28T05:24:04;20.90;;;13.27;;
20657;SDS011;10488;50.846;4.078;2023-02-28T05:26:35;23.10;;;12.63;;
20657;SDS011;10488;50.846;4.078;2023-02-28T05:29:04;20.80;;;12.67;;
20657;SDS011;10488;50.846;4.078;2023-02-28T05:31:30;21.97;;;12.70;;
20657;SDS011;10488;50.846;4.078;2023-02-28T05:33:55;21.33;;;12.60;;
20657;SDS011;10488;50.846;4.078;2023-02-28T05:36:22;18.63;;;12.30;;
20657;SDS011;10488;50.846;4.078;2023-02-28T05:38:50;21.00;;;12.43;;
20657;SDS011;10488;50.846;4.078;2023-02-28T05:41:17;22.80;;;12.83;;
20657;SDS011;10488;50.846;4.078;2023-02-28T05:43:44;19.73;;;11.53;;
20657;SDS011;10488;50.846;4.078;2023-02-28T05:46:11;20.53;;;11.53;;
20657;SDS011;10488;50.846;4.078;2023-02-28T05:48:39;23.57;;;12.50;;
20657;SDS011;10488;50.846;4.078;2023-02-28T05:51:07;21.83;;;12.17;;
20657;SDS011;10488;50.846;4.078;2023-02-28T05:53:34;17.57;;;11.33;;
20657;SDS011;10488;50.846;4.078;2023-02-28T05:56:01;19.23;;;12.07;;
20657;SDS011;10488;50.846;4.078;2023-02-28T05:58:27;18.73;;;11.50;;
20657;SDS011;10488;50.846;4.078;2023-02-28T06:00:56;17.20;;;11.00;;
20657;SDS011;10488;50.846;4.078;2023-02-28T06:03:23;21.77;;;11.03;;
20657;SDS011;10488;50.846;4.078;2023-02-28T06:05:51;17.83;;;11.33;;
20657;SDS011;10488;50.846;4.078;2023-02-28T06:08:18;19.87;;;12.20;;
20657;SDS011;10488;50.846;4.078;2023-02-28T06:10:44;21.60;;;12.03;;
20657;SDS011;10488;50.846;4.078;2023-02-28T06:13:10;15.90;;;11.00;;
20657;SDS011;10488;50.846;4.078;2023-02-28T06:15:38;17.70;;;10.43;;
20657;SDS011;10488;50.846;4.078;2023-02-28T06:18:04;15.63;;;10.37;;
20657;SDS011;10488;50.846;4.078;2023-02-28T06:20:30;17.67;;;10.83;;
20657;SDS011;10488;50.846;4.078;2023-02-28T06:22:56;17.43;;;10.83;;
20657;SDS011;10488;50.846;4.078;2023-02-28T06:25:26;15.30;;;9.90;;
20657;SDS011;10488;50.846;4.078;2023-02-28T06:27:53;18.97;;;10.80;;
20657;SDS011;10488;50.846;4.078;2023-02-28T06:30:19;17.57;;;11.10;;
20657;SDS011;10488;50.846;4.078;2023-02-28T06:32:50;12.40;;;10.33;;
20657;SDS011;10488;50.846;4.078;2023-02-28T06:35:17;18.30;;;11.57;;
20657;SDS011;10488;50.846;4.078;2023-02-28T06:37:44;16.43;;;10.80;;
20657;SDS011;10488;50.846;4.078;2023-02-28T06:40:10;16.83;;;11.07;;
20657;SDS011;10488;50.846;4.078;2023-02-28T06:42:36;19.20;;;11.10;;
20657;SDS011;10488;50.846;4.078;2023-02-28T06:45:01;16.17;;;10.60;;
20657;SDS011;10488;50.846;4.078;2023-02-28T06:47:36;13.90;;;10.73;;
20657;SDS011;10488;50.846;4.078;2023-02-28T06:50:03;15.47;;;9.80;;
20657;SDS011;10488;50.846;4.078;2023-02-28T06:52:30;15.33;;;9.90;;
20657;SDS011;10488;50.846;4.078;2023-02-28T06:54:55;17.10;;;10.70;;
20657;SDS011;10488;50.846;4.078;2023-02-28T06:57:31;16.30;;;11.03;;
20657;SDS011;10488;50.846;4.078;2023-02-28T07:00:08;18.53;;;10.43;;
20657;SDS011;10488;50.846;4.078;2023-02-28T07:02:35;13.07;;;10.10;;
20657;SDS011;10488;50.846;4.078;2023-02-28T07:05:02;14.23;;;9.50;;
20657;SDS011;10488;50.846;4.078;2023-02-28T07:07:28;15.40;;;10.97;;
20657;SDS011;10488;50.846;4.078;2023-02-28T07:09:54;18.57;;;10.83;;
20657;SDS011;10488;50.846;4.078;2023-02-28T07:12:21;17.17;;;10.47;;
20657;SDS011;10488;50.846;4.078;2023-02-28T07:14:48;19.70;;;10.00;;
20657;SDS011;10488;50.846;4.078;2023-02-28T07:17:13;20.80;;;10.03;;
20657;SDS011;10488;50.846;4.078;2023-02-28T07:19:39;12.93;;;8.77;;
20657;SDS011;10488;50.846;4.078;2023-02-28T07:22:05;14.27;;;9.03;;
20657;SDS011;10488;50.846;4.078;2023-02-28T07:24:31;16.87;;;10.47;;
20657;SDS011;10488;50.846;4.078;2023-02-28T07:26:58;13.57;;;10.27;;
20657;SDS011;10488;50.846;4.078;2023-02-28T07:29:24;19.23;;;9.70;;
20657;SDS011;10488;50.846;4.078;2023-02-28T07:31:51;12.70;;;9.40;;
20657;SDS011;10488;50.846;4.078;2023-02-28T07:34:18;17.53;;;10.33;;
20657;SDS011;10488;50.846;4.078;2023-02-28T07:36:44;15.63;;;9.03;;
20657;SDS011;10488;50.846;4.078;2023-02-28T07:39:10;14.70;;;9.53;;
20657;SDS011;10488;50.846;4.078;2023-02-28T07:41:35;41.53;;;22.63;;
20657;SDS011;10488;50.846;4.078;2023-02-28T07:44:08;44.47;;;24.63;;
20657;SDS011;10488;50.846;4.078;2023-02-28T07:46:36;24.60;;;13.97;;
20657;SDS011;10488;50.846;4.078;2023-02-28T07:49:02;11.67;;;8.13;;
20657;SDS011;10488;50.846;4.078;2023-02-28T07:51:29;15.63;;;8.93;;
20657;SDS011;10488;50.846;4.078;2023-02-28T07:53:55;13.73;;;8.20;;
20657;SDS011;10488;50.846;4.078;2023-02-28T07:56:21;10.48;;;7.63;;
20657;SDS011;10488;50.846;4.078;2023-02-28T07:58:47;10.13;;;7.13;;
20657;SDS011;10488;50.846;4.078;2023-02-28T08:01:12;12.05;;;7.30;;
20657;SDS011;10488;50.846;4.078;2023-02-28T08:03:40;10.05;;;7.25;;
20657;SDS011;10488;50.846;4.078;2023-02-28T08:06:06;9.27;;;7.05;;
20657;SDS011;10488;50.846;4.078;2023-02-28T08:08:39;11.50;;;7.45;;
20657;SDS011;10488;50.846;4.078;2023-02-28T08:11:05;9.80;;;7.05;;
20657;SDS011;10488;50.846;4.078;2023-02-28T08:13:30;8.43;;;6.22;;
20657;SDS011;10488;50.846;4.078;2023-02-28T08:15:57;11.15;;;6.47;;
20657;SDS011;10488;50.846;4.078;2023-02-28T08:18:23;9.40;;;6.90;;
20657;SDS011;10488;50.846;4.078;2023-02-28T08:20:49;11.18;;;6.80;;
20657;SDS011;10488;50.846;4.078;2023-02-28T08:23:15;14.20;;;6.72;;
20657;SDS011;10488;50.846;4.078;2023-02-28T08:25:40;10.52;;;6.93;;
20657;SDS011;10488;50.846;4.078;2023-02-28T08:28:06;7.80;;;6.28;;
20657;SDS011;10488;50.846;4.078;2023-02-28T08:30:32;11.50;;;6.97;;
20657;SDS011;10488;50.846;4.078;2023-02-28T08:32:58;7.82;;;6.30;;
20657;SDS011;10488;50.846;4.078;2023-02-28T08:35:24;11.35;;;6.38;;
20657;SDS011;10488;50.846;4.078;2023-02-28T08:37:49;8.50;;;5.83;;
20657;SDS011;10488;50.846;4.078;2023-02-28T08:40:16;10.07;;;5.87;;
20657;SDS011;10488;50.846;4.078;2023-02-28T08:42:46;9.25;;;5.70;;
20657;SDS011;10488;50.846;4.078;2023-02-28T08:45:13;6.63;;;4.63;;
20657;SDS011;10488;50.846;4.078;2023-02-28T08:47:39;7.45;;;5.45;;
20657;SDS011;10488;50.846;4.078;2023-02-28T08:50:06;7.03;;;4.70;;
20657;SDS011;10488;50.846;4.078;2023-02-28T08:52:32;6.57;;;4.40;;
20657;SDS011;10488;50.846;4.078;2023-02-28T08:54:59;12.90;;;8.55;;
20657;SDS011;10488;50.846;4.078;2023-02-28T08:57:25;7.07;;;4.63;;
20657;SDS011;10488;50.846;4.078;2023-02-28T08:59:53;4.73;;;4.17;;
20657;SDS011;10488;50.846;4.078;2023-02-28T09:02:19;8.20;;;3.80;;
20657;SDS011;10488;50.846;4.078;2023-02-28T09:04:45;7.95;;;4.18;;
20657;SDS011;10488;50.846;4.078;2023-02-28T09:07:11;5.22;;;4.32;;
20657;SDS011;10488;50.846;4.078;2023-02-28T09:09:37;5.80;;;3.75;;
20657;SDS011;10488;50.846;4.078;2023-02-28T09:12:03;4.10;;;3.20;;
20657;SDS011;10488;50.846;4.078;2023-02-28T09:14:30;7.28;;;3.63;;
20657;SDS011;10488;50.846;4.078;2023-02-28T09:16:55;5.10;;;3.60;;
20657;SDS011;10488;50.846;4.078;2023-02-28T09:19:21;6.50;;;3.17;;
20657;SDS011;10488;50.846;4.078;2023-02-28T09:21:47;5.00;;;3.10;;
20657;SDS011;10488;50.846;4.078;2023-02-28T09:24:13;4.90;;;3.47;;
20657;SDS011;10488;50.846;4.078;2023-02-28T09:26:40;4.97;;;3.35;;
20657;SDS011;10488;50.846;4.078;2023-02-28T09:29:06;5.15;;;2.90;;
20657;SDS011;10488;50.846;4.078;2023-02-28T09:31:31;2.80;;;2.03;;
20657;SDS011;10488;50.846;4.078;2023-02-28T09:33:57;8.27;;;3.65;;
20657;SDS011;10488;50.846;4.078;2023-02-28T09:36:24;3.55;;;2.53;;
20657;SDS011;10488;50.846;4.078;2023-02-28T09:38:51;3.10;;;2.60;;
20657;SDS011;10488;50.846;4.078;2023-02-28T09:44:01;4.20;;;2.83;;
20657;SDS011;10488;50.846;4.078;2023-02-28T09:49:13;4.53;;;3.15;;
20657;SDS011;10488;50.846;4.078;2023-02-28T09:54:18;4.30;;;2.75;;
20657;SDS011;10488;50.846;4.078;2023-02-28T09:56:48;2.92;;;2.20;;
20657;SDS011;10488;50.846;4.078;2023-02-28T10:04:56;5.63;;;2.77;;
20657;SDS011;10488;50.846;4.078;2023-02-28T10:13:05;6.45;;;2.95;;
20657;SDS011;10488;50.846;4.078;2023-02-28T10:15:39;3.93;;;3.13;;
20657;SDS011;10488;50.846;4.078;2023-02-28T10:18:09;7.10;;;4.70;;
20657;SDS011;10488;50.846;4.078;2023-02-28T10:20:39;6.30;;;3.70;;
20657;SDS011;10488;50.846;4.078;2023-02-28T10:26:14;4.03;;;2.70;;
20657;SDS011;10488;50.846;4.078;2023-02-28T10:28:43;4.57;;;2.30;;
20657;SDS011;10488;50.846;4.078;2023-02-28T10:31:17;4.30;;;2.80;;
20657;SDS011;10488;50.846;4.078;2023-02-28T10:33:44;4.00;;;2.70;;
20657;SDS011;10488;50.846;4.078;2023-02-28T10:36:14;3.05;;;2.28;;
20657;SDS011;10488;50.846;4.078;2023-02-28T10:38:42;7.10;;;2.33;;
20657;SDS011;10488;50.846;4.078;2023-02-28T10:41:13;3.58;;;2.72;;
20657;SDS011;10488;50.846;4.078;2023-02-28T10:43:51;4.43;;;2.25;;
20657;SDS011;10488;50.846;4.078;2023-02-28T10:46:18;4.35;;;2.70;;
20657;SDS011;10488;50.846;4.078;2023-02-28T10:49:12;6.80;;;3.60;;
20657;SDS011;10488;50.846;4.078;2023-02-28T10:51:44;4.35;;;2.50;;
20657;SDS011;10488;50.846;4.078;2023-02-28T10:54:18;5.33;;;2.70;;
20657;SDS011;10488;50.846;4.078;2023-02-28T10:59:50;10.13;;;6.50;;
20657;SDS011;10488;50.846;4.078;2023-02-28T11:02:38;4.47;;;3.05;;
20657;SDS011;10488;50.846;4.078;2023-02-28T11:07:56;7.47;;;2.70;;
20657;SDS011;10488;50.846;4.078;2023-02-28T11:10:44;7.35;;;4.32;;
20657;SDS011;10488;50.846;4.078;2023-02-28T11:13:17;11.48;;;8.57;;
20657;SDS011;10488;50.846;4.078;2023-02-28T11:15:50;6.63;;;4.13;;
20657;SDS011;10488;50.846;4.078;2023-02-28T11:18:21;5.45;;;4.15;;
20657;SDS011;10488;50.846;4.078;2023-02-28T11:20:55;10.32;;;4.72;;
20657;SDS011;10488;50.846;4.078;2023-02-28T11:23:28;4.13;;;3.10;;
20657;SDS011;10488;50.846;4.078;2023-02-28T11:25:57;3.03;;;2.70;;
20657;SDS011;10488;50.846;4.078;2023-02-28T11:28:32;3.90;;;2.57;;
20657;SDS011;10488;50.846;4.078;2023-02-28T11:38:46;2.53;;;1.95;;
20657;SDS011;10488;50.846;4.078;2023-02-28T11:44:00;2.80;;;1.80;;
20657;SDS011;10488;50.846;4.078;2023-02-28T11:46:35;3.05;;;1.83;;
20657;SDS011;10488;50.846;4.078;2023-02-28T11:56:57;3.58;;;2.50;;
20657;SDS011;10488;50.846;4.078;2023-02-28T12:00:29;3.67;;;2.33;;
20657;SDS011;10488;50.846;4.078;2023-02-28T12:02:26;3.13;;;2.05;;
20657;SDS011;10488;50.846;4.078;2023-02-28T12:11:09;5.22;;;2.70;;
20657;SDS011;10488;50.846;4.078;2023-02-28T12:22:29;5.45;;;2.35;;
20657;SDS011;10488;50.846;4.078;2023-02-28T12:25:21;3.40;;;2.60;;
20657;SDS011;10488;50.846;4.078;2023-02-28T12:28:12;5.32;;;2.90;;
20657;SDS011;10488;50.846;4.078;2023-02-28T12:30:52;4.45;;;2.20;;
20657;SDS011;10488;50.846;4.078;2023-02-28T12:33:35;8.68;;;3.03;;
20657;SDS011;10488;50.846;4.078;2023-02-28T12:36:07;4.18;;;2.38;;
20657;SDS011;10488;50.846;4.078;2023-02-28T12:39:38;3.40;;;2.65;;
20657;SDS011;10488;50.846;4.078;2023-02-28T12:41:54;2.92;;;2.40;;
20657;SDS011;10488;50.846;4.078;2023-02-28T12:47:00;2.17;;;1.90;;
20657;SDS011;10488;50.846;4.078;2023-02-28T12:49:31;3.42;;;2.65;;
20657;SDS011;10488;50.846;4.078;2023-02-28T12:52:02;3.92;;;2.50;;
20657;SDS011;10488;50.846;4.078;2023-02-28T12:55:14;3.20;;;2.78;;
20657;SDS011;10488;50.846;4.078;2023-02-28T13:00:16;3.08;;;2.50;;
20657;SDS011;10488;50.846;4.078;2023-02-28T13:05:39;4.10;;;2.50;;
20657;SDS011;10488;50.846;4.078;2023-02-28T13:08:53;19.13;;;10.50;;
20657;SDS011;10488;50.846;4.078;2023-02-28T13:11:33;4.95;;;4.13;;
20657;SDS011;10488;50.846;4.078;2023-02-28T13:14:06;5.85;;;2.58;;
20657;SDS011;10488;50.846;4.078;2023-02-28T13:19:55;3.50;;;2.50;;
20657;SDS011;10488;50.846;4.078;2023-02-28T13:28:10;3.78;;;2.90;;
20657;SDS011;10488;50.846;4.078;2023-02-28T13:36:07;3.70;;;2.75;;
20657;SDS011;10488;50.846;4.078;2023-02-28T13:44:07;2.85;;;2.53;;
20657;SDS011;10488;50.846;4.078;2023-02-28T13:51:48;3.55;;;2.60;;
20657;SDS011;10488;50.846;4.078;2023-02-28T13:57:39;6.82;;;2.65;;
20657;SDS011;10488;50.846;4.078;2023-02-28T14:06:13;3.45;;;2.83;;
20657;SDS011;10488;50.846;4.078;2023-02-28T14:08:47;9.13;;;7.15;;
20657;SDS011;10488;50.846;4.078;2023-02-28T14:11:32;4.03;;;3.33;;
20657;SDS011;10488;50.846;4.078;2023-02-28T14:14:00;4.90;;;3.53;;
20657;SDS011;10488;50.846;4.078;2023-02-28T14:16:28;3.63;;;2.85;;
20657;SDS011;10488;50.846;4.078;2023-02-28T14:19:01;5.05;;;3.05;;
20657;SDS011;10488;50.846;4.078;2023-02-28T14:21:48;6.18;;;4.00;;
20657;SDS011;10488;50.846;4.078;2023-02-28T14:27:49;5.25;;;3.50;;
20657;SDS011;10488;50.846;4.078;2023-02-28T14:36:21;4.75;;;2.83;;
20657;SDS011;10488;50.846;4.078;2023-02-28T14:38:51;7.97;;;3.50;;
20657;SDS011;10488;50.846;4.078;2023-02-28T14:41:39;3.33;;;2.80;;
20657;SDS011;10488;50.846;4.078;2023-02-28T14:44:19;5.78;;;3.20;;
20657;SDS011;10488;50.846;4.078;2023-02-28T14:46:56;8.05;;;4.70;;
20657;SDS011;10488;50.846;4.078;2023-02-28T14:49:35;4.55;;;3.47;;
20657;SDS011;10488;50.846;4.078;2023-02-28T14:52:07;4.50;;;2.90;;
20657;SDS011;10488;50.846;4.078;2023-02-28T14:54:52;7.15;;;3.08;;
20657;SDS011;10488;50.846;4.078;2023-02-28T14:57:33;9.20;;;3.47;;
20657;SDS011;10488;50.846;4.078;2023-02-28T15:00:14;4.13;;;3.15;;
20657;SDS011;10488;50.846;4.078;2023-02-28T15:03:00;5.65;;;3.47;;
20657;SDS011;10488;50.846;4.078;2023-02-28T15:05:47;4.32;;;2.70;;
20657;SDS011;10488;50.846;4.078;2023-02-28T15:08:20;4.07;;;2.92;;
20657;SDS011;10488;50.846;4.078;2023-02-28T15:10:57;6.57;;;3.13;;
20657;SDS011;10488;50.846;4.078;2023-02-28T15:13:29;3.10;;;2.80;;
20657;SDS011;10488;50.846;4.078;2023-02-28T15:16:08;9.48;;;3.15;;
20657;SDS011;10488;50.846;4.078;2023-02-28T15:21:17;4.30;;;2.85;;
20657;SDS011;10488;50.846;4.078;2023-02-28T15:23:48;7.32;;;3.05;;
20657;SDS011;10488;50.846;4.078;2023-02-28T15:26:23;3.88;;;2.80;;
20657;SDS011;10488;50.846;4.078;2023-02-28T15:28:54;3.88;;;2.40;;
20657;SDS011;10488;50.846;4.078;2023-02-28T15:34:05;4.38;;;3.00;;
20657;SDS011;10488;50.846;4.078;2023-02-28T15:36:32;5.28;;;3.20;;
20657;SDS011;10488;50.846;4.078;2023-02-28T15:39:21;6.80;;;3.45;;
20657;SDS011;10488;50.846;4.078;2023-02-28T15:41:50;4.95;;;3.25;;
20657;SDS011;10488;50.846;4.078;2023-02-28T15:44:28;4.60;;;3.33;;
20657;SDS011;10488;50.846;4.078;2023-02-28T15:49:44;10.88;;;3.47;;
20657;SDS011;10488;50.846;4.078;2023-02-28T15:52:13;8.30;;;3.60;;
20657;SDS011;10488;50.846;4.078;2023-02-28T15:54:41;4.05;;;3.30;;
20657;SDS011;10488;50.846;4.078;2023-02-28T15:57:11;5.70;;;3.83;;
20657;SDS011;10488;50.846;4.078;2023-02-28T15:59:44;5.18;;;3.28;;
20657;SDS011;10488;50.846;4.078;2023-02-28T16:02:22;3.95;;;3.45;;
20657;SDS011;10488;50.846;4.078;2023-02-28T16:07:36;4.05;;;3.55;;
20657;SDS011;10488;50.846;4.078;2023-02-28T16:10:04;6.70;;;2.95;;
20657;SDS011;10488;50.846;4.078;2023-02-28T16:12:31;8.55;;;6.03;;
20657;SDS011;10488;50.846;4.078;2023-02-28T16:15:00;4.20;;;3.75;;
20657;SDS011;10488;50.846;4.078;2023-02-28T16:17:29;5.97;;;3.75;;
20657;SDS011;10488;50.846;4.078;2023-02-28T16:19:56;5.47;;;3.42;;
20657;SDS011;10488;50.846;4.078;2023-02-28T16:22:23;4.60;;;3.58;;
20657;SDS011;10488;50.846;4.078;2023-02-28T16:24:48;4.40;;;3.35;;
20657;SDS011;10488;50.846;4.078;2023-02-28T16:27:16;6.35;;;3.83;;
20657;SDS011;10488;50.846;4.078;2023-02-28T16:29:50;5.65;;;3.83;;
20657;SDS011;10488;50.846;4.078;2023-02-28T16:32:15;6.20;;;3.75;;
20657;SDS011;10488;50.846;4.078;2023-02-28T16:34:42;4.15;;;3.40;;
20657;SDS011;10488;50.846;4.078;2023-02-28T16:37:13;6.53;;;3.72;;
20657;SDS011;10488;50.846;4.078;2023-02-28T16:39:41;5.13;;;4.18;;
20657;SDS011;10488;50.846;4.078;2023-02-28T16:42:29;5.72;;;3.95;;
20657;SDS011;10488;50.846;4.078;2023-02-28T16:44:54;8.32;;;5.10;;
20657;SDS011;10488;50.846;4.078;2023-02-28T16:47:20;5.70;;;3.20;;
20657;SDS011;10488;50.846;4.078;2023-02-28T16:49:46;3.53;;;3.22;;
20657;SDS011;10488;50.846;4.078;2023-02-28T16:52:12;5.78;;;3.42;;
20657;SDS011;10488;50.846;4.078;2023-02-28T16:54:39;4.85;;;3.78;;
20657;SDS011;10488;50.846;4.078;2023-02-28T16:57:06;6.68;;;4.28;;
20657;SDS011;10488;50.846;4.078;2023-02-28T16:59:46;7.60;;;4.45;;
20657;SDS011;10488;50.846;4.078;2023-02-28T17:02:14;8.20;;;4.63;;
20657;SDS011;10488;50.846;4.078;2023-02-28T17:04:41;5.90;;;4.40;;
20657;SDS011;10488;50.846;4.078;2023-02-28T17:07:14;7.80;;;6.35;;
20657;SDS011;10488;50.846;4.078;2023-02-28T17:09:41;11.48;;;6.63;;
20657;SDS011;10488;50.846;4.078;2023-02-28T17:12:08;15.07;;;10.77;;
20657;SDS011;10488;50.846;4.078;2023-02-28T17:14:34;10.48;;;7.53;;
20657;SDS011;10488;50.846;4.078;2023-02-28T17:17:01;21.48;;;18.95;;
20657;SDS011;10488;50.846;4.078;2023-02-28T17:19:26;15.33;;;6.03;;
20657;SDS011;10488;50.846;4.078;2023-02-28T17:21:53;6.30;;;5.05;;
20657;SDS011;10488;50.846;4.078;2023-02-28T17:24:18;5.87;;;4.17;;
20657;SDS011;10488;50.846;4.078;2023-02-28T17:26:44;6.30;;;4.43;;
20657;SDS011;10488;50.846;4.078;2023-02-28T17:29:19;6.30;;;4.50;;
20657;SDS011;10488;50.846;4.078;2023-02-28T17:31:46;10.77;;;5.57;;
20657;SDS011;10488;50.846;4.078;2023-02-28T17:34:12;8.10;;;5.13;;